UAE557 ENGM-EGLL
Flight info
| Callsign | UAE557 |
|---|---|
| Flight time | N/A |
| Altitude | 40000 |
| Route | ENGM N0487F400 VIPA1C VIPPA DCT LINVI L39 GOLUM DCT UPGAS DCT TIPAN DCT WECOW DCT BINBO DCT AKOKO N866 BUKUT P7 BARMI BARM1H EGLL |
| Aircraft | B748/J-L/L |
Departure
| Time | 2026-05-07 18:55 |
|---|---|
| Airport | Oslo-Gardermoen International Airport (ENGM) |
Arrival
| Time | N/A |
|---|---|
| Airport | London Heathrow Airport (EGLL) |
| Time | Latitude | Longitude | Altitude | Speed | Heading |
|---|---|---|---|---|---|
| 2026-05-07 18:36 | 60.19358 | 11.11073 | 687 ft | 0 kts | 196° |
| 2026-05-07 18:43 | 60.19374 | 11.11083 | 686 ft | 4 kts | 196° |
| 2026-05-07 18:43 | 60.19400 | 11.11098 | 685 ft | 4 kts | 196° |
| 2026-05-07 18:44 | 60.19423 | 11.11109 | 684 ft | 4 kts | 173° |
| 2026-05-07 18:44 | 60.19440 | 11.11088 | 684 ft | 4 kts | 108° |
| 2026-05-07 18:44 | 60.19446 | 11.11045 | 684 ft | 0 kts | 106° |
| 2026-05-07 18:48 | 60.19446 | 11.11046 | 684 ft | 0 kts | 106° |
| 2026-05-07 18:48 | 60.19444 | 11.11062 | 684 ft | 5 kts | 106° |
| 2026-05-07 18:48 | 60.19431 | 11.11153 | 686 ft | 7 kts | 105° |
| 2026-05-07 18:49 | 60.19430 | 11.11231 | 689 ft | 4 kts | 71° |
| 2026-05-07 18:49 | 60.19455 | 11.11285 | 686 ft | 6 kts | 38° |
| 2026-05-07 18:49 | 60.19494 | 11.11321 | 683 ft | 7 kts | 19° |
| 2026-05-07 18:49 | 60.19548 | 11.11354 | 686 ft | 8 kts | 17° |
| 2026-05-07 18:50 | 60.19604 | 11.11387 | 689 ft | 9 kts | 16° |
| 2026-05-07 18:50 | 60.19668 | 11.11423 | 687 ft | 10 kts | 15° |
| 2026-05-07 18:50 | 60.19737 | 11.11461 | 684 ft | 10 kts | 15° |
| 2026-05-07 18:50 | 60.19804 | 11.11498 | 688 ft | 10 kts | 15° |
| 2026-05-07 18:51 | 60.19866 | 11.11532 | 693 ft | 9 kts | 17° |
| 2026-05-07 18:51 | 60.19923 | 11.11568 | 689 ft | 8 kts | 17° |
| 2026-05-07 18:51 | 60.19977 | 11.11601 | 689 ft | 8 kts | 17° |
| 2026-05-07 18:51 | 60.20029 | 11.11631 | 690 ft | 8 kts | 15° |
| 2026-05-07 18:52 | 60.20092 | 11.11666 | 692 ft | 10 kts | 15° |
| 2026-05-07 18:52 | 60.20148 | 11.11724 | 687 ft | 8 kts | 47° |
| 2026-05-07 18:52 | 60.20165 | 11.11822 | 694 ft | 7 kts | 89° |
| 2026-05-07 18:52 | 60.20156 | 11.11927 | 696 ft | 8 kts | 104° |
| 2026-05-07 18:53 | 60.20142 | 11.12030 | 694 ft | 6 kts | 107° |
| 2026-05-07 18:53 | 60.20118 | 11.12134 | 690 ft | 10 kts | 127° |
| 2026-05-07 18:53 | 60.20061 | 11.12197 | 691 ft | 9 kts | 174° |
| 2026-05-07 18:53 | 60.20001 | 11.12179 | 692 ft | 9 kts | 195° |
| 2026-05-07 18:54 | 60.19938 | 11.12141 | 696 ft | 10 kts | 197° |
| 2026-05-07 18:54 | 60.19792 | 11.12057 | 690 ft | 51 kts | 196° |
| 2026-05-07 18:54 | 60.19216 | 11.11729 | 684 ft | 118 kts | 195° |
| 2026-05-07 18:54 | 60.18253 | 11.11175 | 687 ft | 167 kts | 196° |
| 2026-05-07 18:55 | 60.17028 | 11.10458 | 925 ft | 190 kts | 195° |
| 2026-05-07 18:55 | 60.15762 | 11.09733 | 1580 ft | 193 kts | 197° |
| 2026-05-07 18:55 | 60.14475 | 11.08834 | 2240 ft | 198 kts | 200° |
| 2026-05-07 18:55 | 60.13144 | 11.08002 | 2917 ft | 204 kts | 196° |
| 2026-05-07 18:56 | 60.11744 | 11.07180 | 3600 ft | 217 kts | 196° |
| 2026-05-07 18:56 | 60.10380 | 11.05696 | 4279 ft | 236 kts | 224° |
| 2026-05-07 18:56 | 60.09503 | 11.02794 | 4690 ft | 257 kts | 255° |
| 2026-05-07 18:56 | 60.08997 | 10.99334 | 5361 ft | 262 kts | 239° |
| 2026-05-07 18:57 | 60.07744 | 10.96705 | 6096 ft | 266 kts | 210° |
| 2026-05-07 18:57 | 60.06033 | 10.95250 | 6808 ft | 269 kts | 200° |
| 2026-05-07 18:57 | 60.04226 | 10.94102 | 7096 ft | 274 kts | 196° |
| 2026-05-07 18:57 | 60.02397 | 10.93113 | 7100 ft | 272 kts | 195° |
| 2026-05-07 18:58 | 60.00566 | 10.92168 | 7092 ft | 272 kts | 195° |
| 2026-05-07 18:58 | 59.98742 | 10.91232 | 7100 ft | 274 kts | 195° |
| 2026-05-07 18:58 | 59.96910 | 10.90181 | 7096 ft | 273 kts | 203° |
| 2026-05-07 18:58 | 59.95234 | 10.88513 | 7161 ft | 274 kts | 210° |
| 2026-05-07 18:59 | 59.93587 | 10.86593 | 7749 ft | 274 kts | 212° |
| 2026-05-07 18:59 | 59.91941 | 10.84621 | 8524 ft | 276 kts | 212° |
| 2026-05-07 18:59 | 59.90291 | 10.82643 | 9275 ft | 277 kts | 212° |
| 2026-05-07 18:59 | 59.88631 | 10.80662 | 10006 ft | 279 kts | 212° |
| 2026-05-07 19:00 | 59.86952 | 10.78678 | 10583 ft | 284 kts | 212° |
| 2026-05-07 19:00 | 59.85215 | 10.76647 | 10959 ft | 296 kts | 212° |
| 2026-05-07 19:00 | 59.83392 | 10.74534 | 11244 ft | 311 kts | 212° |
| 2026-05-07 19:00 | 59.81472 | 10.72319 | 11466 ft | 328 kts | 212° |
| 2026-05-07 19:01 | 59.79446 | 10.69989 | 11646 ft | 345 kts | 212° |
| 2026-05-07 19:01 | 59.77329 | 10.67559 | 11915 ft | 358 kts | 212° |
| 2026-05-07 19:01 | 59.75144 | 10.65060 | 12367 ft | 366 kts | 212° |
| 2026-05-07 19:01 | 59.72926 | 10.62539 | 12900 ft | 371 kts | 212° |
| 2026-05-07 19:02 | 59.70666 | 10.59987 | 13459 ft | 375 kts | 212° |
| 2026-05-07 19:02 | 59.68378 | 10.57422 | 14024 ft | 378 kts | 212° |
| 2026-05-07 19:02 | 59.66074 | 10.54862 | 14536 ft | 382 kts | 212° |
| 2026-05-07 19:02 | 59.63747 | 10.52294 | 15055 ft | 384 kts | 212° |
| 2026-05-07 19:03 | 59.61401 | 10.49721 | 15583 ft | 387 kts | 212° |
| 2026-05-07 19:03 | 59.59039 | 10.47145 | 16100 ft | 389 kts | 212° |
| 2026-05-07 19:03 | 59.56658 | 10.44559 | 16609 ft | 392 kts | 212° |
| 2026-05-07 19:03 | 59.54260 | 10.41964 | 17098 ft | 394 kts | 212° |
| 2026-05-07 19:04 | 59.51846 | 10.39363 | 17567 ft | 397 kts | 212° |
| 2026-05-07 19:04 | 59.49437 | 10.36781 | 18045 ft | 399 kts | 212° |
| 2026-05-07 19:04 | 59.46960 | 10.34137 | 18475 ft | 402 kts | 212° |
| 2026-05-07 19:04 | 59.44523 | 10.31539 | 18850 ft | 404 kts | 212° |
| 2026-05-07 19:05 | 59.42048 | 10.28907 | 19206 ft | 406 kts | 212° |
| 2026-05-07 19:05 | 59.39549 | 10.26262 | 19561 ft | 409 kts | 212° |
| 2026-05-07 19:05 | 59.37003 | 10.23581 | 19913 ft | 411 kts | 212° |
| 2026-05-07 19:05 | 59.34506 | 10.20967 | 20229 ft | 413 kts | 212° |
| 2026-05-07 19:06 | 59.31958 | 10.18317 | 20568 ft | 415 kts | 212° |
| 2026-05-07 19:06 | 59.26819 | 10.13016 | 21193 ft | 420 kts | 212° |
| 2026-05-07 19:06 | 59.24228 | 10.10364 | 21487 ft | 422 kts | 212° |
| 2026-05-07 19:07 | 59.21615 | 10.07702 | 21779 ft | 424 kts | 212° |
| 2026-05-07 19:07 | 59.19021 | 10.05064 | 22021 ft | 426 kts | 211° |
| 2026-05-07 19:07 | 59.16385 | 10.02376 | 22273 ft | 428 kts | 211° |
| 2026-05-07 19:07 | 59.13740 | 9.99682 | 22519 ft | 430 kts | 212° |
| 2026-05-07 19:08 | 59.11078 | 9.96978 | 22763 ft | 432 kts | 212° |
| 2026-05-07 19:08 | 59.08411 | 9.94275 | 23003 ft | 434 kts | 211° |
| 2026-05-07 19:08 | 59.05728 | 9.91565 | 23242 ft | 436 kts | 211° |
| 2026-05-07 19:08 | 59.03026 | 9.88844 | 23486 ft | 437 kts | 211° |
| 2026-05-07 19:09 | 59.00323 | 9.86129 | 23686 ft | 439 kts | 211° |
| 2026-05-07 19:09 | 58.97602 | 9.83405 | 23875 ft | 441 kts | 211° |
| 2026-05-07 19:09 | 58.94868 | 9.80677 | 24032 ft | 442 kts | 211° |
| 2026-05-07 19:09 | 58.92135 | 9.77941 | 24171 ft | 443 kts | 211° |
| 2026-05-07 19:10 | 58.89393 | 9.75177 | 24330 ft | 445 kts | 211° |
| 2026-05-07 19:10 | 58.86641 | 9.72396 | 24492 ft | 446 kts | 211° |
| 2026-05-07 19:10 | 58.83888 | 9.69613 | 24622 ft | 447 kts | 211° |
| 2026-05-07 19:10 | 58.81135 | 9.66833 | 24771 ft | 448 kts | 211° |
| 2026-05-07 19:11 | 58.78364 | 9.64038 | 24909 ft | 449 kts | 211° |
| 2026-05-07 19:11 | 58.75599 | 9.61255 | 25035 ft | 450 kts | 211° |
| 2026-05-07 19:11 | 58.72822 | 9.58463 | 25189 ft | 450 kts | 211° |
| 2026-05-07 19:11 | 58.70038 | 9.55669 | 25306 ft | 451 kts | 211° |
| 2026-05-07 19:12 | 58.67252 | 9.52875 | 25420 ft | 452 kts | 211° |
| 2026-05-07 19:12 | 58.64471 | 9.50064 | 25550 ft | 452 kts | 211° |
| 2026-05-07 19:12 | 58.61687 | 9.47226 | 25685 ft | 453 kts | 211° |
| 2026-05-07 19:12 | 58.58905 | 9.44382 | 25816 ft | 454 kts | 211° |
| 2026-05-07 19:13 | 58.56146 | 9.41561 | 25956 ft | 455 kts | 211° |
| 2026-05-07 19:13 | 58.53347 | 9.38704 | 26107 ft | 456 kts | 211° |
| 2026-05-07 19:13 | 58.50549 | 9.35856 | 26259 ft | 456 kts | 211° |
| 2026-05-07 19:13 | 58.47743 | 9.33004 | 26412 ft | 457 kts | 211° |
| 2026-05-07 19:14 | 58.44919 | 9.30139 | 26577 ft | 458 kts | 211° |
| 2026-05-07 19:14 | 58.42099 | 9.27282 | 26734 ft | 459 kts | 211° |
| 2026-05-07 19:14 | 58.39274 | 9.24422 | 26920 ft | 460 kts | 211° |
| 2026-05-07 19:14 | 58.36446 | 9.21564 | 27093 ft | 461 kts | 211° |
| 2026-05-07 19:15 | 58.33612 | 9.18703 | 27266 ft | 461 kts | 211° |
| 2026-05-07 19:15 | 58.30775 | 9.15843 | 27440 ft | 462 kts | 211° |
| 2026-05-07 19:15 | 58.27929 | 9.12976 | 27662 ft | 464 kts | 211° |
| 2026-05-07 19:15 | 58.25084 | 9.10057 | 27856 ft | 464 kts | 213° |
| 2026-05-07 19:16 | 58.22320 | 9.06902 | 28068 ft | 463 kts | 217° |
| 2026-05-07 19:16 | 58.19772 | 9.03215 | 28272 ft | 461 kts | 223° |
| 2026-05-07 19:16 | 58.17376 | 8.99150 | 28521 ft | 461 kts | 226° |
| 2026-05-07 19:16 | 58.15022 | 8.95004 | 28717 ft | 463 kts | 224° |
| 2026-05-07 19:17 | 58.12541 | 8.91088 | 28938 ft | 467 kts | 220° |
| 2026-05-07 19:17 | 58.09966 | 8.87324 | 29179 ft | 469 kts | 220° |
| 2026-05-07 19:17 | 58.07430 | 8.83443 | 29394 ft | 470 kts | 222° |
| 2026-05-07 19:17 | 58.04929 | 8.79428 | 29655 ft | 472 kts | 223° |
| 2026-05-07 19:18 | 58.02402 | 8.75452 | 29901 ft | 474 kts | 221° |
| 2026-05-07 19:18 | 57.99829 | 8.71535 | 30169 ft | 476 kts | 221° |
| 2026-05-07 19:18 | 57.97276 | 8.67636 | 30413 ft | 478 kts | 221° |
| 2026-05-07 19:18 | 57.94704 | 8.63644 | 30650 ft | 480 kts | 222° |
| 2026-05-07 19:19 | 57.92115 | 8.59631 | 30888 ft | 482 kts | 221° |
| 2026-05-07 19:19 | 57.89515 | 8.55649 | 31200 ft | 482 kts | 221° |
| 2026-05-07 19:19 | 57.86910 | 8.51678 | 31575 ft | 482 kts | 221° |
| 2026-05-07 19:19 | 57.84300 | 8.47685 | 31953 ft | 481 kts | 221° |
| 2026-05-07 19:20 | 57.81720 | 8.43735 | 32348 ft | 480 kts | 221° |
| 2026-05-07 19:20 | 57.79128 | 8.39784 | 32744 ft | 480 kts | 221° |
| 2026-05-07 19:20 | 57.76536 | 8.35849 | 33155 ft | 479 kts | 221° |
| 2026-05-07 19:20 | 57.74822 | 8.33249 | 33422 ft | 479 kts | 221° |
| 2026-05-07 19:21 | 57.72242 | 8.29334 | 33828 ft | 478 kts | 221° |
| 2026-05-07 19:21 | 57.68783 | 8.24100 | 34340 ft | 477 kts | 221° |
| 2026-05-07 19:21 | 57.67077 | 8.21526 | 34542 ft | 477 kts | 221° |
| 2026-05-07 19:21 | 57.64486 | 8.17620 | 34856 ft | 476 kts | 220° |
| 2026-05-07 19:22 | 57.61906 | 8.13739 | 35156 ft | 476 kts | 220° |
| 2026-05-07 19:22 | 57.59325 | 8.09863 | 35480 ft | 476 kts | 220° |
| 2026-05-07 19:22 | 57.56744 | 8.05995 | 35802 ft | 476 kts | 220° |
| 2026-05-07 19:22 | 57.54163 | 8.02133 | 36102 ft | 476 kts | 220° |
| 2026-05-07 19:23 | 57.51582 | 7.98280 | 36422 ft | 475 kts | 220° |
| 2026-05-07 19:23 | 57.49002 | 7.94434 | 36698 ft | 475 kts | 220° |
| 2026-05-07 19:23 | 57.46422 | 7.90596 | 36985 ft | 475 kts | 220° |
| 2026-05-07 19:23 | 57.43842 | 7.86765 | 37277 ft | 475 kts | 220° |
| 2026-05-07 19:24 | 57.41256 | 7.82931 | 37554 ft | 475 kts | 220° |
| 2026-05-07 19:24 | 57.38707 | 7.79159 | 37750 ft | 475 kts | 220° |
| 2026-05-07 19:24 | 57.36119 | 7.75339 | 38016 ft | 476 kts | 219° |
| 2026-05-07 19:24 | 57.33524 | 7.71515 | 38267 ft | 476 kts | 219° |
| 2026-05-07 19:25 | 57.30932 | 7.67701 | 38500 ft | 476 kts | 219° |
| 2026-05-07 19:25 | 57.28340 | 7.63894 | 38755 ft | 476 kts | 219° |
| 2026-05-07 19:25 | 57.25753 | 7.60103 | 38932 ft | 476 kts | 219° |
| 2026-05-07 19:25 | 57.23159 | 7.56308 | 39126 ft | 476 kts | 219° |
| 2026-05-07 19:26 | 57.20565 | 7.52520 | 39314 ft | 475 kts | 219° |
| 2026-05-07 19:26 | 57.17970 | 7.48737 | 39488 ft | 475 kts | 219° |
| 2026-05-07 19:26 | 57.15374 | 7.44959 | 39673 ft | 476 kts | 219° |
| 2026-05-07 19:26 | 57.12775 | 7.41185 | 39833 ft | 476 kts | 219° |
| 2026-05-07 19:27 | 57.10174 | 7.37414 | 40019 ft | 476 kts | 219° |
| 2026-05-07 19:27 | 57.07572 | 7.33650 | 40130 ft | 474 kts | 219° |
| 2026-05-07 19:27 | 57.02411 | 7.26203 | 40129 ft | 469 kts | 219° |
| 2026-05-07 19:28 | 56.97180 | 7.19052 | 40124 ft | 468 kts | 217° |
| 2026-05-07 19:28 | 56.91909 | 7.12069 | 40149 ft | 467 kts | 217° |
| 2026-05-07 19:29 | 56.86597 | 7.05138 | 40141 ft | 469 kts | 217° |
| 2026-05-07 19:29 | 56.81292 | 6.98204 | 40130 ft | 468 kts | 217° |
| 2026-05-07 19:30 | 56.76014 | 6.91344 | 40146 ft | 468 kts | 216° |
| 2026-05-07 19:30 | 56.70704 | 6.84463 | 40151 ft | 468 kts | 216° |
| 2026-05-07 19:31 | 56.65383 | 6.77591 | 40125 ft | 468 kts | 216° |
| 2026-05-07 19:31 | 56.60041 | 6.70718 | 40149 ft | 471 kts | 216° |
| 2026-05-07 19:32 | 56.54688 | 6.63854 | 40149 ft | 471 kts | 216° |
| 2026-05-07 19:32 | 56.49330 | 6.57009 | 40151 ft | 471 kts | 216° |
| 2026-05-07 19:33 | 56.43967 | 6.50181 | 40150 ft | 471 kts | 216° |
| 2026-05-07 19:33 | 56.38589 | 6.43357 | 40146 ft | 473 kts | 216° |
| 2026-05-07 19:34 | 56.33193 | 6.36537 | 40150 ft | 473 kts | 216° |
| 2026-05-07 19:34 | 56.27828 | 6.29779 | 40154 ft | 473 kts | 216° |
| 2026-05-07 19:35 | 56.22433 | 6.23005 | 40149 ft | 473 kts | 216° |
| 2026-05-07 19:35 | 56.17028 | 6.16244 | 40148 ft | 473 kts | 216° |
| 2026-05-07 19:36 | 56.11614 | 6.09494 | 40144 ft | 475 kts | 215° |
| 2026-05-07 19:36 | 56.06183 | 6.02749 | 40142 ft | 474 kts | 215° |
| 2026-05-07 19:37 | 56.00754 | 5.96027 | 40147 ft | 475 kts | 215° |
| 2026-05-07 19:37 | 55.95346 | 5.89356 | 40149 ft | 475 kts | 215° |
| 2026-05-07 19:38 | 55.89908 | 5.82671 | 40146 ft | 475 kts | 215° |
| 2026-05-07 19:38 | 55.84466 | 5.76004 | 40148 ft | 475 kts | 215° |
| 2026-05-07 19:39 | 55.79014 | 5.69347 | 40146 ft | 475 kts | 215° |
| 2026-05-07 19:39 | 55.73565 | 5.62718 | 40144 ft | 475 kts | 215° |
| 2026-05-07 19:40 | 55.68115 | 5.56110 | 40148 ft | 474 kts | 215° |
| 2026-05-07 19:40 | 55.62660 | 5.49518 | 40138 ft | 476 kts | 214° |
| 2026-05-07 19:41 | 55.57186 | 5.42927 | 40134 ft | 476 kts | 214° |
| 2026-05-07 19:41 | 55.51713 | 5.36359 | 40138 ft | 476 kts | 214° |
| 2026-05-07 19:42 | 55.46236 | 5.29809 | 40145 ft | 476 kts | 214° |
| 2026-05-07 19:42 | 55.41011 | 5.22801 | 40141 ft | 475 kts | 218° |
| 2026-05-07 19:43 | 55.35806 | 5.15597 | 40138 ft | 476 kts | 218° |
| 2026-05-07 19:43 | 55.30595 | 5.08419 | 40140 ft | 476 kts | 218° |
| 2026-05-07 19:44 | 55.25384 | 5.01264 | 40144 ft | 476 kts | 216° |
| 2026-05-07 19:44 | 55.19660 | 4.95434 | 40149 ft | 476 kts | 208° |
| 2026-05-07 19:45 | 55.13814 | 4.89954 | 40144 ft | 476 kts | 208° |
| 2026-05-07 19:45 | 55.07991 | 4.84461 | 40146 ft | 476 kts | 208° |
| 2026-05-07 19:46 | 55.02152 | 4.79002 | 40140 ft | 476 kts | 208° |
| 2026-05-07 19:46 | 54.96307 | 4.73538 | 40141 ft | 476 kts | 208° |
| 2026-05-07 19:47 | 54.90470 | 4.68110 | 40137 ft | 476 kts | 208° |
| 2026-05-07 19:47 | 54.84633 | 4.62695 | 40137 ft | 476 kts | 208° |
| 2026-05-07 19:48 | 54.78780 | 4.57285 | 40134 ft | 476 kts | 208° |
| 2026-05-07 19:48 | 54.72936 | 4.51900 | 40134 ft | 476 kts | 208° |
| 2026-05-07 19:49 | 54.67084 | 4.46526 | 40132 ft | 476 kts | 208° |
| 2026-05-07 19:49 | 54.61270 | 4.41204 | 40128 ft | 475 kts | 208° |
| 2026-05-07 19:50 | 54.55420 | 4.35867 | 40126 ft | 475 kts | 208° |
| 2026-05-07 19:50 | 54.49569 | 4.30546 | 40126 ft | 476 kts | 208° |
| 2026-05-07 19:51 | 54.43715 | 4.25240 | 40138 ft | 475 kts | 208° |
| 2026-05-07 19:51 | 54.37857 | 4.19948 | 40134 ft | 475 kts | 208° |
| 2026-05-07 19:52 | 54.32002 | 4.14675 | 40131 ft | 475 kts | 208° |
| 2026-05-07 19:52 | 54.26143 | 4.09417 | 40132 ft | 475 kts | 208° |
| 2026-05-07 19:53 | 54.20276 | 4.04167 | 40132 ft | 475 kts | 208° |
| 2026-05-07 19:53 | 54.14444 | 3.98966 | 40128 ft | 476 kts | 208° |
| 2026-05-07 19:54 | 54.08573 | 3.93747 | 40128 ft | 476 kts | 208° |
| 2026-05-07 19:54 | 54.02707 | 3.88549 | 40128 ft | 476 kts | 208° |
| 2026-05-07 19:55 | 53.96832 | 3.83359 | 40129 ft | 476 kts | 208° |
| 2026-05-07 19:55 | 53.90945 | 3.78177 | 40123 ft | 476 kts | 208° |
| 2026-05-07 19:56 | 53.85051 | 3.73004 | 40121 ft | 476 kts | 208° |
| 2026-05-07 19:56 | 53.79163 | 3.67853 | 40121 ft | 476 kts | 208° |
| 2026-05-07 19:57 | 53.73265 | 3.62710 | 40133 ft | 476 kts | 208° |
| 2026-05-07 19:57 | 53.67401 | 3.57613 | 40127 ft | 476 kts | 208° |
| 2026-05-07 19:58 | 53.61514 | 3.52511 | 40124 ft | 476 kts | 208° |
| 2026-05-07 19:58 | 53.55617 | 3.47417 | 40125 ft | 476 kts | 208° |
| 2026-05-07 19:59 | 53.49718 | 3.42338 | 40122 ft | 476 kts | 207° |
| 2026-05-07 19:59 | 53.43817 | 3.37273 | 40122 ft | 476 kts | 207° |
| 2026-05-07 20:00 | 53.37920 | 3.32226 | 40119 ft | 476 kts | 207° |
| 2026-05-07 20:00 | 53.32016 | 3.27191 | 40104 ft | 476 kts | 207° |
| 2026-05-07 20:01 | 53.26103 | 3.22163 | 40104 ft | 476 kts | 207° |
| 2026-05-07 20:01 | 53.20199 | 3.17157 | 40098 ft | 476 kts | 207° |
| 2026-05-07 20:02 | 53.14290 | 3.12153 | 40097 ft | 476 kts | 207° |
| 2026-05-07 20:02 | 53.08374 | 3.07170 | 40096 ft | 476 kts | 207° |
| 2026-05-07 20:03 | 53.03453 | 3.03043 | 40113 ft | 476 kts | 207° |
| 2026-05-07 20:03 | 52.96536 | 2.97253 | 40107 ft | 476 kts | 207° |
| 2026-05-07 20:04 | 52.90635 | 2.92333 | 40105 ft | 476 kts | 207° |
| 2026-05-07 20:04 | 52.85717 | 2.88243 | 40105 ft | 476 kts | 207° |
| 2026-05-07 20:05 | 52.79794 | 2.83332 | 40108 ft | 476 kts | 207° |
| 2026-05-07 20:05 | 52.73861 | 2.78426 | 40106 ft | 476 kts | 207° |
| 2026-05-07 20:06 | 52.67921 | 2.73522 | 40098 ft | 476 kts | 207° |
| 2026-05-07 20:06 | 52.64959 | 2.71083 | 39874 ft | 477 kts | 207° |
| 2026-05-07 20:06 | 52.62023 | 2.68670 | 39398 ft | 477 kts | 207° |
| 2026-05-07 20:07 | 52.59051 | 2.66230 | 38884 ft | 477 kts | 207° |
| 2026-05-07 20:07 | 52.56044 | 2.63765 | 38232 ft | 477 kts | 207° |
| 2026-05-07 20:07 | 52.53105 | 2.61359 | 37581 ft | 477 kts | 207° |
| 2026-05-07 20:07 | 52.50131 | 2.58929 | 36912 ft | 477 kts | 207° |
| 2026-05-07 20:08 | 52.47155 | 2.56502 | 36214 ft | 478 kts | 207° |
| 2026-05-07 20:08 | 52.44180 | 2.54078 | 35563 ft | 477 kts | 207° |
| 2026-05-07 20:08 | 52.41205 | 2.51660 | 34910 ft | 477 kts | 207° |
| 2026-05-07 20:08 | 52.38235 | 2.49250 | 34264 ft | 477 kts | 207° |
| 2026-05-07 20:09 | 52.35264 | 2.46842 | 33516 ft | 476 kts | 207° |
| 2026-05-07 20:09 | 52.32280 | 2.44426 | 32684 ft | 476 kts | 207° |
| 2026-05-07 20:09 | 52.29308 | 2.42024 | 31854 ft | 477 kts | 207° |
| 2026-05-07 20:10 | 52.23345 | 2.37218 | 30261 ft | 477 kts | 208° |
| 2026-05-07 20:10 | 52.20391 | 2.34841 | 29637 ft | 471 kts | 208° |
| 2026-05-07 20:10 | 52.17465 | 2.32490 | 29005 ft | 465 kts | 208° |
| 2026-05-07 20:10 | 52.14577 | 2.30174 | 28383 ft | 460 kts | 208° |
| 2026-05-07 20:11 | 52.11786 | 2.27701 | 27735 ft | 454 kts | 216° |
| 2026-05-07 20:11 | 52.09339 | 2.24523 | 27127 ft | 448 kts | 225° |
| 2026-05-07 20:11 | 52.07248 | 2.20818 | 26527 ft | 443 kts | 229° |
| 2026-05-07 20:11 | 52.05228 | 2.17074 | 26127 ft | 437 kts | 230° |
| 2026-05-07 20:12 | 52.03233 | 2.13364 | 26109 ft | 437 kts | 230° |
| 2026-05-07 20:12 | 52.01228 | 2.09650 | 26107 ft | 438 kts | 230° |
| 2026-05-07 20:12 | 51.99216 | 2.05938 | 26108 ft | 438 kts | 230° |
| 2026-05-07 20:12 | 51.97172 | 2.02281 | 26108 ft | 438 kts | 224° |
| 2026-05-07 20:13 | 51.94731 | 1.99266 | 26110 ft | 442 kts | 212° |
| 2026-05-07 20:13 | 51.91953 | 1.97138 | 26107 ft | 444 kts | 203° |
| 2026-05-07 20:13 | 51.89028 | 1.95505 | 26106 ft | 445 kts | 199° |
| 2026-05-07 20:13 | 51.86057 | 1.94089 | 26102 ft | 446 kts | 198° |
| 2026-05-07 20:14 | 51.83078 | 1.92735 | 25890 ft | 443 kts | 200° |
| 2026-05-07 20:14 | 51.80261 | 1.90936 | 25380 ft | 438 kts | 207° |
| 2026-05-07 20:14 | 51.77561 | 1.88763 | 25103 ft | 432 kts | 210° |
| 2026-05-07 20:14 | 51.74951 | 1.86332 | 25100 ft | 434 kts | 213° |
| 2026-05-07 20:15 | 51.72409 | 1.83673 | 25099 ft | 435 kts | 215° |
| 2026-05-07 20:15 | 51.69907 | 1.80929 | 25101 ft | 435 kts | 216° |
| 2026-05-07 20:15 | 51.67420 | 1.78151 | 25097 ft | 435 kts | 216° |
| 2026-05-07 20:15 | 51.64941 | 1.75360 | 25100 ft | 435 kts | 217° |
| 2026-05-07 20:16 | 51.62620 | 1.72255 | 25105 ft | 432 kts | 229° |
| 2026-05-07 20:16 | 51.60928 | 1.68277 | 24780 ft | 432 kts | 246° |
| 2026-05-07 20:16 | 51.60097 | 1.63689 | 24461 ft | 427 kts | 263° |
| 2026-05-07 20:16 | 51.60092 | 1.58943 | 24174 ft | 420 kts | 274° |
| 2026-05-07 20:17 | 51.60475 | 1.54358 | 23873 ft | 410 kts | 278° |
| 2026-05-07 20:17 | 51.61003 | 1.49900 | 23551 ft | 401 kts | 280° |
| 2026-05-07 20:17 | 51.61574 | 1.45610 | 23180 ft | 393 kts | 281° |
| 2026-05-07 20:17 | 51.62166 | 1.41349 | 22810 ft | 387 kts | 281° |
| 2026-05-07 20:18 | 51.62761 | 1.37164 | 22441 ft | 380 kts | 281° |
| 2026-05-07 20:18 | 51.63350 | 1.33054 | 22078 ft | 375 kts | 281° |
| 2026-05-07 20:18 | 51.63932 | 1.28997 | 21725 ft | 369 kts | 281° |
| 2026-05-07 20:18 | 51.64507 | 1.24996 | 21364 ft | 364 kts | 281° |
| 2026-05-07 20:19 | 51.65075 | 1.21045 | 21034 ft | 360 kts | 281° |
| 2026-05-07 20:19 | 51.65635 | 1.17140 | 20675 ft | 356 kts | 281° |
| 2026-05-07 20:19 | 51.66185 | 1.13298 | 20339 ft | 352 kts | 281° |
| 2026-05-07 20:19 | 51.66734 | 1.09460 | 19966 ft | 349 kts | 281° |
| 2026-05-07 20:20 | 51.67277 | 1.05657 | 19578 ft | 347 kts | 281° |
| 2026-05-07 20:20 | 51.67817 | 1.01864 | 19202 ft | 345 kts | 281° |
| 2026-05-07 20:20 | 51.68353 | 0.98091 | 18836 ft | 343 kts | 281° |
| 2026-05-07 20:20 | 51.68884 | 0.94356 | 18479 ft | 341 kts | 281° |
| 2026-05-07 20:21 | 51.69417 | 0.90633 | 18080 ft | 340 kts | 281° |
| 2026-05-07 20:21 | 51.69793 | 0.86897 | 17666 ft | 336 kts | 271° |
| 2026-05-07 20:21 | 51.69796 | 0.83155 | 17276 ft | 333 kts | 266° |
| 2026-05-07 20:21 | 51.69650 | 0.79429 | 16885 ft | 331 kts | 264° |
| 2026-05-07 20:22 | 51.69432 | 0.75740 | 16499 ft | 330 kts | 262° |
| 2026-05-07 20:22 | 51.69168 | 0.72127 | 16116 ft | 328 kts | 262° |
| 2026-05-07 20:22 | 51.68887 | 0.68483 | 15730 ft | 327 kts | 261° |
| 2026-05-07 20:22 | 51.68602 | 0.64849 | 15364 ft | 326 kts | 261° |
| 2026-05-07 20:23 | 51.68319 | 0.61231 | 14997 ft | 325 kts | 261° |
| 2026-05-07 20:23 | 51.68037 | 0.57625 | 14635 ft | 324 kts | 261° |
| 2026-05-07 20:23 | 51.67767 | 0.54122 | 14183 ft | 307 kts | 261° |
| 2026-05-07 20:23 | 51.67515 | 0.50789 | 13796 ft | 295 kts | 261° |
| 2026-05-07 20:24 | 51.67267 | 0.47498 | 13386 ft | 297 kts | 261° |
| 2026-05-07 20:24 | 51.67015 | 0.44193 | 12998 ft | 299 kts | 261° |
| 2026-05-07 20:24 | 51.66755 | 0.40850 | 12617 ft | 300 kts | 261° |
| 2026-05-07 20:24 | 51.66492 | 0.37518 | 12238 ft | 301 kts | 261° |
| 2026-05-07 20:25 | 51.66227 | 0.34211 | 11871 ft | 302 kts | 261° |
| 2026-05-07 20:25 | 51.65955 | 0.30853 | 11499 ft | 301 kts | 261° |
| 2026-05-07 20:25 | 51.65690 | 0.27593 | 11066 ft | 286 kts | 261° |
| 2026-05-07 20:25 | 51.65439 | 0.24493 | 10645 ft | 273 kts | 261° |
| 2026-05-07 20:26 | 51.65245 | 0.21519 | 10230 ft | 262 kts | 265° |
| 2026-05-07 20:26 | 51.65138 | 0.18637 | 9810 ft | 254 kts | 265° |
| 2026-05-07 20:26 | 51.65053 | 0.15761 | 9429 ft | 259 kts | 266° |
| 2026-05-07 20:26 | 51.64967 | 0.12853 | 9151 ft | 260 kts | 266° |
| 2026-05-07 20:27 | 51.64874 | 0.09955 | 8874 ft | 257 kts | 266° |
| 2026-05-07 20:27 | 51.64790 | 0.07146 | 8600 ft | 248 kts | 266° |
| 2026-05-07 20:27 | 51.64708 | 0.04358 | 8344 ft | 250 kts | 266° |
| 2026-05-07 20:27 | 51.64621 | 0.01555 | 8102 ft | 251 kts | 266° |
| 2026-05-07 20:28 | 51.64536 | -0.01223 | 8055 ft | 244 kts | 266° |
| 2026-05-07 20:28 | 51.64445 | -0.03917 | 8047 ft | 241 kts | 266° |
| 2026-05-07 20:28 | 51.64345 | -0.06613 | 8041 ft | 241 kts | 266° |
| 2026-05-07 20:28 | 51.64244 | -0.09304 | 7968 ft | 243 kts | 266° |
| 2026-05-07 20:29 | 51.64141 | -0.12032 | 7710 ft | 245 kts | 266° |
| 2026-05-07 20:29 | 51.64034 | -0.14788 | 7467 ft | 247 kts | 266° |
| 2026-05-07 20:29 | 51.63926 | -0.17561 | 7213 ft | 250 kts | 266° |
| 2026-05-07 20:29 | 51.63814 | -0.20359 | 6976 ft | 251 kts | 266° |
| 2026-05-07 20:30 | 51.63702 | -0.23178 | 6731 ft | 253 kts | 266° |
| 2026-05-07 20:30 | 51.63588 | -0.26008 | 6495 ft | 254 kts | 266° |
| 2026-05-07 20:30 | 51.63473 | -0.28821 | 6239 ft | 256 kts | 266° |
| 2026-05-07 20:30 | 51.63358 | -0.31685 | 5992 ft | 257 kts | 266° |
| 2026-05-07 20:31 | 51.63241 | -0.34565 | 5750 ft | 259 kts | 266° |
| 2026-05-07 20:31 | 51.63126 | -0.37457 | 5614 ft | 256 kts | 266° |
| 2026-05-07 20:31 | 51.63018 | -0.40218 | 5825 ft | 238 kts | 266° |
| 2026-05-07 20:31 | 51.62909 | -0.42910 | 5995 ft | 241 kts | 266° |
| 2026-05-07 20:32 | 51.62800 | -0.45584 | 6069 ft | 240 kts | 266° |
| 2026-05-07 20:32 | 51.62692 | -0.48260 | 6070 ft | 238 kts | 266° |
| 2026-05-07 20:32 | 51.62582 | -0.50943 | 6079 ft | 246 kts | 266° |
| 2026-05-07 20:32 | 51.62469 | -0.53709 | 6088 ft | 247 kts | 266° |
| 2026-05-07 20:33 | 51.62358 | -0.56436 | 6070 ft | 241 kts | 266° |
| 2026-05-07 20:33 | 51.62250 | -0.59125 | 5931 ft | 240 kts | 266° |
| 2026-05-07 20:33 | 51.62142 | -0.61800 | 5790 ft | 239 kts | 266° |
| 2026-05-07 20:33 | 51.61920 | -0.64441 | 5653 ft | 238 kts | 255° |
| 2026-05-07 20:34 | 51.61455 | -0.66998 | 5517 ft | 238 kts | 252° |
| 2026-05-07 20:34 | 51.60939 | -0.69521 | 5390 ft | 238 kts | 251° |
| 2026-05-07 20:34 | 51.60414 | -0.72048 | 5260 ft | 238 kts | 251° |
| 2026-05-07 20:34 | 51.59895 | -0.74539 | 5132 ft | 238 kts | 250° |
| 2026-05-07 20:35 | 51.59353 | -0.77049 | 5001 ft | 237 kts | 250° |
| 2026-05-07 20:35 | 51.58773 | -0.79476 | 4878 ft | 225 kts | 239° |
| 2026-05-07 20:35 | 51.57708 | -0.81171 | 4727 ft | 215 kts | 204° |
| 2026-05-07 20:35 | 51.56278 | -0.81719 | 4646 ft | 211 kts | 184° |
| 2026-05-07 20:36 | 51.54854 | -0.81870 | 4523 ft | 198 kts | 181° |
| 2026-05-07 20:36 | 51.53499 | -0.81965 | 4368 ft | 193 kts | 181° |
| 2026-05-07 20:36 | 51.52157 | -0.82052 | 4185 ft | 193 kts | 181° |
| 2026-05-07 20:36 | 51.50857 | -0.81740 | 3877 ft | 189 kts | 149° |
| 2026-05-07 20:37 | 51.49941 | -0.80297 | 3621 ft | 185 kts | 124° |
| 2026-05-07 20:37 | 51.49239 | -0.78567 | 3377 ft | 185 kts | 121° |
| 2026-05-07 20:37 | 51.48571 | -0.76818 | 3130 ft | 182 kts | 121° |
| 2026-05-07 20:37 | 51.47945 | -0.75142 | 3059 ft | 167 kts | 116° |
| 2026-05-07 20:38 | 51.47672 | -0.73376 | 3054 ft | 162 kts | 100° |
| 2026-05-07 20:38 | 51.47504 | -0.71561 | 3025 ft | 164 kts | 95° |
| 2026-05-07 20:38 | 51.47434 | -0.69752 | 2915 ft | 162 kts | 94° |
| 2026-05-07 20:38 | 51.47442 | -0.67942 | 2694 ft | 161 kts | 87° |
| 2026-05-07 20:39 | 51.47519 | -0.66230 | 2491 ft | 151 kts | 87° |
| 2026-05-07 20:39 | 51.47605 | -0.64571 | 2192 ft | 146 kts | 88° |
| 2026-05-07 20:39 | 51.47646 | -0.62956 | 1923 ft | 144 kts | 89° |
| 2026-05-07 20:39 | 51.47687 | -0.61325 | 1684 ft | 148 kts | 90° |
| 2026-05-07 20:40 | 51.47731 | -0.59679 | 1445 ft | 147 kts | 90° |
| 2026-05-07 20:40 | 51.47761 | -0.58037 | 1314 ft | 149 kts | 92° |
| 2026-05-07 20:40 | 51.47710 | -0.56389 | 1163 ft | 149 kts | 94° |
| 2026-05-07 20:40 | 51.47679 | -0.54757 | 945 ft | 142 kts | 94° |
| 2026-05-07 20:41 | 51.47681 | -0.53203 | 703 ft | 140 kts | 89° |
| 2026-05-07 20:41 | 51.47734 | -0.51687 | 619 ft | 130 kts | 90° |
| 2026-05-07 20:41 | 51.47744 | -0.50196 | 392 ft | 133 kts | 91° |
| 2026-05-07 20:41 | 51.47765 | -0.48682 | 160 ft | 149 kts | 85° |